Time;durP1;ratioP1;P1;durP2;ratioP2;P2;SDS_P1;SDS_P2;PMS_P1;PMS_P2;Temp;Humidity;BMP_temperature;BMP_pressure;BME280_temperature;BME280_humidity;BME280_pressure;Samples;Min_cycle;Max_cycle;Signal;HPM_P1;HPM_P2
2023/06/06 00:01:59;;;;;;;7.73;5.60;;;17.20;1.00;;;;;;5097793;28;20473;-82
2023/06/06 00:04:27;;;;;;;6.70;4.40;;;17.20;1.00;;;;;;5097306;28;20444;-81
2023/06/06 00:06:54;;;;;;;6.43;4.50;;;17.20;99.90;;;;;;5097626;28;20449;-81
2023/06/06 00:09:21;;;;;;;8.13;5.07;;;17.20;99.90;;;;;;5097129;28;20454;-80
2023/06/06 00:11:48;;;;;;;6.90;4.80;;;17.10;1.00;;;;;;5099507;28;20479;-80
2023/06/06 00:14:18;;;;;;;6.80;4.23;;;17.10;99.90;;;;;;5098927;28;21005;-81
2023/06/06 00:16:48;;;;;;;6.67;3.90;;;17.10;99.90;;;;;;5099667;28;20454;-82
2023/06/06 00:19:20;;;;;;;5.30;3.90;;;17.10;99.90;;;;;;5099763;28;20503;-81
2023/06/06 00:21:47;;;;;;;5.63;4.33;;;17.10;1.00;;;;;;5098889;28;20460;-82
2023/06/06 00:24:15;;;;;;;5.90;4.57;;;17.00;42.90;;;;;;5097828;28;20475;-81
2023/06/06 00:26:42;;;;;;;6.27;4.60;;;16.90;99.90;;;;;;5100980;28;20471;-82
2023/06/06 00:29:09;;;;;;;6.60;4.33;;;16.90;1.00;;;;;;5099668;28;20458;-82
2023/06/06 00:31:36;;;;;;;5.30;4.23;;;16.90;99.90;;;;;;5100105;28;20501;-82
2023/06/06 00:34:02;;;;;;;5.57;3.73;;;16.80;99.90;;;;;;5098556;28;20450;-81
2023/06/06 00:36:31;;;;;;;5.13;3.87;;;16.80;99.90;;;;;;5099209;28;20455;-83
2023/06/06 00:38:57;;;;;;;5.00;4.50;;;16.80;1.00;;;;;;5099506;28;20531;-82
2023/06/06 00:41:25;;;;;;;5.60;4.80;;;16.80;1.00;;;;;;5098974;28;20467;-82
2023/06/06 00:43:52;;;;;;;5.67;4.90;;;16.80;1.00;;;;;;5096395;28;20454;-82
2023/06/06 00:46:19;;;;;;;5.07;4.47;;;16.80;1.00;;;;;;5097304;28;20445;-82
2023/06/06 00:48:47;;;;;;;5.70;4.83;;;16.80;1.00;;;;;;5101095;28;20454;-82
2023/06/06 00:51:15;;;;;;;8.70;5.20;;;16.70;1.00;;;;;;5099958;28;20487;-82
2023/06/06 00:53:44;;;;;;;5.53;4.27;;;16.70;1.00;;;;;;5099935;28;20457;-82
2023/06/06 00:56:13;;;;;;;6.27;5.17;;;16.70;1.00;;;;;;5100631;28;20955;-82
2023/06/06 00:58:41;;;;;;;9.73;5.60;;;16.70;99.90;;;;;;5100595;28;20456;-82
2023/06/06 01:01:09;;;;;;;7.47;4.60;;;16.60;49.80;;;;;;5100720;28;20460;-82
2023/06/06 01:03:36;;;;;;;7.40;4.37;;;16.60;69.60;;;;;;5098550;28;20452;-81
2023/06/06 01:06:03;;;;;;;8.27;5.07;;;16.60;99.90;;;;;;5099917;28;20525;-81
2023/06/06 01:08:30;;;;;;;6.87;4.60;;;16.50;99.90;;;;;;5103758;28;20902;-82
2023/06/06 01:11:18;;;;;;;8.47;5.03;;;16.50;99.90;;;;;;5103051;28;21017;-81
2023/06/06 01:13:56;;;;;;;8.37;5.00;;;16.50;99.90;;;;;;5104725;28;20453;-82
2023/06/06 01:16:23;;;;;;;6.50;4.80;;;16.50;99.90;;;;;;5104497;28;20453;-82
2023/06/06 01:18:52;;;;;;;5.03;4.50;;;16.50;99.90;;;;;;5104693;28;20518;-80
2023/06/06 01:21:19;;;;;;;6.30;4.70;;;16.40;99.90;;;;;;5103001;28;20470;-81
2023/06/06 01:23:48;;;;;;;7.60;5.47;;;16.40;99.90;;;;;;5102629;28;20451;-82
2023/06/06 01:26:14;;;;;;;8.60;5.07;;;16.40;99.90;;;;;;5101843;28;20522;-82
2023/06/06 01:28:42;;;;;;;8.50;5.17;;;16.40;1.00;;;;;;5105090;28;20542;-82
2023/06/06 01:31:15;;;;;;;8.70;5.70;;;16.30;99.90;;;;;;5103124;28;20487;-82
2023/06/06 01:33:49;;;;;;;9.43;5.50;;;16.30;99.90;;;;;;5101803;28;20522;-82
2023/06/06 01:36:35;;;;;;;7.37;5.50;;;16.30;99.90;;;;;;5102670;28;20430;-82
2023/06/06 01:39:12;;;;;;;7.87;6.10;;;16.30;99.90;;;;;;5102641;28;20450;-81
2023/06/06 01:41:41;;;;;;;7.77;5.33;;;16.20;99.90;;;;;;5102849;28;20457;-80
2023/06/06 01:44:09;;;;;;;7.20;6.00;;;16.20;99.90;;;;;;5100070;28;20446;-80
2023/06/06 01:46:38;;;;;;;6.70;5.67;;;16.20;99.90;;;;;;5099736;28;20449;-80
2023/06/06 01:49:05;;;;;;;7.57;5.57;;;16.20;99.90;;;;;;5098922;28;20458;-80
2023/06/06 01:51:32;;;;;;;8.13;5.97;;;16.20;99.90;;;;;;5098283;28;20576;-81
2023/06/06 01:53:59;;;;;;;9.43;6.17;;;16.20;99.90;;;;;;5098267;28;20449;-80
2023/06/06 01:56:28;;;;;;;6.67;5.87;;;16.10;99.90;;;;;;5099904;28;20943;-80
2023/06/06 01:58:55;;;;;;;8.00;5.80;;;16.10;99.90;;;;;;5100179;28;20449;-80
2023/06/06 02:01:22;;;;;;;8.47;6.70;;;16.00;99.90;;;;;;5101953;28;20474;-81
2023/06/06 02:03:49;;;;;;;9.07;6.03;;;16.10;99.90;;;;;;5101118;28;20450;-81
2023/06/06 02:06:16;;;;;;;7.40;5.60;;;16.00;99.90;;;;;;5102197;28;20453;-81
2023/06/06 02:08:43;;;;;;;6.80;5.27;;;16.00;99.90;;;;;;5101726;28;20450;-82
2023/06/06 02:11:10;;;;;;;7.17;5.30;;;15.90;99.90;;;;;;5102012;28;20493;-81
2023/06/06 02:13:39;;;;;;;6.67;5.00;;;15.90;99.90;;;;;;5101277;28;20529;-81
2023/06/06 02:16:07;;;;;;;9.33;5.87;;;15.80;99.90;;;;;;5101542;28;20981;-81
2023/06/06 02:18:35;;;;;;;8.23;6.20;;;15.80;99.90;;;;;;5100828;28;20460;-82
2023/06/06 02:21:04;;;;;;;8.90;5.60;;;15.80;1.00;;;;;;5101463;28;20884;-81
2023/06/06 02:23:31;;;;;;;7.47;5.33;;;15.80;1.00;;;;;;5100043;28;20452;-82
2023/06/06 02:25:58;;;;;;;9.03;6.60;;;15.70;1.00;;;;;;5101792;28;20469;-82
2023/06/06 02:28:25;;;;;;;7.40;5.93;;;15.70;1.00;;;;;;5102162;28;20454;-82
2023/06/06 02:30:54;;;;;;;9.70;6.00;;;15.60;1.00;;;;;;5101199;28;20489;-81
2023/06/06 02:33:21;;;;;;;7.00;6.23;;;15.60;1.00;;;;;;5100677;28;20451;-84
2023/06/06 02:35:50;;;;;;;9.33;6.00;;;15.60;1.00;;;;;;5101704;28;20438;-82
2023/06/06 02:38:17;;;;;;;8.77;5.23;;;15.60;1.00;;;;;;5100642;28;20484;-82
2023/06/06 02:40:44;;;;;;;7.93;6.37;;;15.60;1.00;;;;;;5098851;28;20472;-83
2023/06/06 02:43:10;;;;;;;8.40;5.83;;;15.50;1.00;;;;;;5095676;28;20457;-83
2023/06/06 02:45:37;;;;;;;7.10;6.27;;;15.50;1.00;;;;;;5098127;28;20462;-83
2023/06/06 02:48:06;;;;;;;8.83;6.07;;;15.50;1.00;;;;;;5098182;28;20476;-83
2023/06/06 02:50:33;;;;;;;6.27;5.40;;;15.40;1.00;;;;;;5097655;28;20504;-82
2023/06/06 02:53:03;;;;;;;8.70;6.20;;;15.40;1.00;;;;;;5097426;28;20449;-82
2023/06/06 02:55:29;;;;;;;7.80;6.27;;;15.40;1.00;;;;;;5097817;28;20506;-81
2023/06/06 02:57:56;;;;;;;7.30;5.60;;;15.40;1.00;;;;;;5098000;28;20821;-83
2023/06/06 03:00:23;;;;;;;7.80;5.23;;;15.30;1.00;;;;;;5098431;28;20473;-83
2023/06/06 03:02:50;;;;;;;8.97;6.40;;;15.30;1.00;;;;;;5097630;28;20459;-81
2023/06/06 03:05:18;;;;;;;7.23;6.40;;;15.30;1.00;;;;;;5098531;28;20446;-83
2023/06/06 03:07:45;;;;;;;12.10;6.20;;;15.30;1.00;;;;;;5097884;28;20524;-84
2023/06/06 03:10:11;;;;;;;10.50;6.50;;;15.20;1.00;;;;;;5097497;28;20943;-83
2023/06/06 03:12:38;;;;;;;8.40;5.30;;;15.20;1.00;;;;;;5097633;28;20760;-83
2023/06/06 03:15:06;;;;;;;9.10;6.33;;;15.10;1.00;;;;;;5098496;28;20463;-82
2023/06/06 03:17:33;;;;;;;9.53;6.70;;;15.10;1.00;;;;;;5098143;28;20450;-83
2023/06/06 03:19:59;;;;;;;6.97;5.93;;;15.10;1.00;;;;;;5098474;28;20456;-83
2023/06/06 03:22:28;;;;;;;8.57;5.60;;;15.00;17.00;;;;;;5097339;28;20453;-81
2023/06/06 03:24:56;;;;;;;8.10;5.90;;;14.90;73.60;;;;;;5098405;28;20442;-83
2023/06/06 03:27:23;;;;;;;11.13;5.90;;;14.90;99.90;;;;;;5097864;28;20473;-83
2023/06/06 03:29:52;;;;;;;9.23;5.60;;;14.80;99.90;;;;;;5097242;28;20933;-83
2023/06/06 03:32:19;;;;;;;8.93;6.23;;;14.80;99.90;;;;;;5097316;28;20485;-84
2023/06/06 03:34:46;;;;;;;9.73;7.03;;;14.70;99.90;;;;;;5097318;28;20475;-84
2023/06/06 03:37:13;;;;;;;8.70;6.17;;;14.70;99.90;;;;;;5097413;28;20488;-82
2023/06/06 03:39:42;;;;;;;7.70;6.10;;;14.70;99.90;;;;;;5097498;28;21116;-82
2023/06/06 03:42:09;;;;;;;9.63;7.30;;;14.70;99.90;;;;;;5096693;28;20472;-83
2023/06/06 03:44:36;;;;;;;11.90;6.37;;;14.60;99.90;;;;;;5095839;28;20450;-83
2023/06/06 03:47:02;;;;;;;9.60;6.27;;;14.60;99.90;;;;;;5097211;28;20823;-84
2023/06/06 03:49:35;;;;;;;12.13;5.93;;;14.60;99.90;;;;;;5097738;28;20446;-83
2023/06/06 03:52:02;;;;;;;7.93;6.30;;;14.60;99.90;;;;;;5098541;28;20497;-82
2023/06/06 03:54:29;;;;;;;10.10;6.30;;;14.60;99.90;;;;;;5097881;28;20447;-83
2023/06/06 03:56:58;;;;;;;12.43;7.00;;;14.60;99.90;;;;;;5097959;28;20454;-84
2023/06/06 03:59:24;;;;;;;7.80;5.90;;;14.60;99.90;;;;;;5097699;28;20541;-83
2023/06/06 04:01:52;;;;;;;7.20;6.30;;;14.70;99.90;;;;;;5097000;28;20488;-84
2023/06/06 04:04:19;;;;;;;8.97;6.87;;;14.70;99.90;;;;;;5095564;28;20820;-83
2023/06/06 04:06:46;;;;;;;9.33;6.80;;;14.70;99.90;;;;;;5096738;28;20488;-84
2023/06/06 04:09:15;;;;;;;8.00;5.97;;;14.70;99.90;;;;;;5096629;28;20446;-83
2023/06/06 04:11:42;;;;;;;9.10;6.63;;;14.70;99.90;;;;;;5096561;28;20523;-84
2023/06/06 04:14:13;;;;;;;9.63;6.70;;;14.70;99.90;;;;;;5095744;28;20471;-83
2023/06/06 04:16:40;;;;;;;10.43;7.37;;;14.70;99.90;;;;;;5096293;28;20448;-82
2023/06/06 04:19:07;;;;;;;9.57;6.93;;;14.70;99.90;;;;;;5097045;28;20483;-82
2023/06/06 04:21:34;;;;;;;10.83;6.57;;;14.70;56.10;;;;;;5095876;28;20981;-82
2023/06/06 04:24:01;;;;;;;9.63;6.57;;;14.70;27.90;;;;;;5095933;28;20544;-84
2023/06/06 04:26:31;;;;;;;8.63;6.87;;;14.70;99.90;;;;;;5096155;28;20442;-82
2023/06/06 04:28:59;;;;;;;9.13;6.37;;;14.70;99.90;;;;;;5096716;28;20821;-82
2023/06/06 04:31:29;;;;;;;10.20;7.67;;;14.80;99.90;;;;;;5096139;28;20486;-83
2023/06/06 04:33:56;;;;;;;11.80;7.20;;;14.80;89.20;;;;;;5095693;28;20459;-82
2023/06/06 04:36:24;;;;;;;8.27;6.97;;;14.80;1.00;;;;;;5095773;28;20831;-84
2023/06/06 04:38:51;;;;;;;9.13;7.23;;;14.80;19.00;;;;;;5095981;28;20453;-82
2023/06/06 04:41:20;;;;;;;10.33;7.07;;;14.80;1.00;;;;;;5096221;28;20469;-83
2023/06/06 04:43:49;;;;;;;8.63;6.90;;;14.90;1.00;;;;;;5094017;28;20454;-83
2023/06/06 04:46:21;;;;;;;10.10;7.33;;;14.90;1.00;;;;;;5095929;28;20545;-82
2023/06/06 04:48:53;;;;;;;9.90;6.93;;;15.00;1.00;;;;;;5096243;28;20442;-82
2023/06/06 04:51:22;;;;;;;9.60;6.60;;;14.90;1.00;;;;;;5113993;22;20596;-84
2023/06/06 04:53:53;;;;;;;9.40;7.10;;;14.90;1.00;;;;;;5076353;28;20480;-85
2023/06/06 04:56:20;;;;;;;14.43;7.90;;;15.00;1.00;;;;;;5076969;28;20987;-84
2023/06/06 04:58:48;;;;;;;9.00;6.60;;;15.00;1.00;;;;;;5076534;28;20508;-85
2023/06/06 05:01:15;;;;;;;9.30;7.47;;;15.00;1.00;;;;;;5076352;28;20475;-85
2023/06/06 05:03:42;;;;;;;11.00;7.20;;;15.10;99.90;;;;;;5075480;28;20451;-85
2023/06/06 05:06:11;;;;;;;11.37;6.77;;;15.10;99.90;;;;;;5077513;28;20457;-85
2023/06/06 05:08:41;;;;;;;9.97;7.33;;;15.10;99.90;;;;;;5077333;28;20965;-83
2023/06/06 05:11:10;;;;;;;8.53;6.57;;;15.20;99.90;;;;;;5077243;28;20585;-84
2023/06/06 05:13:36;;;;;;;9.27;6.47;;;15.20;99.90;;;;;;5076921;28;20462;-84
2023/06/06 05:16:03;;;;;;;9.87;7.73;;;15.30;99.90;;;;;;5078919;28;20450;-85
2023/06/06 05:18:30;;;;;;;10.93;7.53;;;15.30;99.90;;;;;;5078932;28;20451;-84
2023/06/06 05:21:02;;;;;;;9.73;6.93;;;15.30;99.90;;;;;;5083917;28;20479;-82
2023/06/06 05:23:30;;;;;;;12.90;8.17;;;15.40;1.00;;;;;;5094801;28;20481;-83
2023/06/06 05:25:58;;;;;;;9.43;7.00;;;15.30;1.00;;;;;;5095635;28;20602;-82
2023/06/06 05:28:25;;;;;;;9.93;7.63;;;15.40;1.00;;;;;;5095778;28;20466;-83
2023/06/06 05:30:53;;;;;;;9.87;7.90;;;15.40;1.00;;;;;;5095178;28;20451;-81
2023/06/06 05:33:20;;;;;;;9.30;7.03;;;15.40;1.00;;;;;;5084188;28;20446;-83
2023/06/06 05:35:48;;;;;;;10.53;7.80;;;15.40;53.20;;;;;;5080558;28;20644;-84
2023/06/06 05:38:15;;;;;;;8.73;7.13;;;15.50;97.30;;;;;;5081098;28;20431;-82
2023/06/06 05:40:43;;;;;;;10.93;7.87;;;15.50;1.00;;;;;;5083306;28;20461;-83
2023/06/06 05:43:10;;;;;;;7.97;6.90;;;15.50;1.00;;;;;;5077325;28;20446;-83
2023/06/06 05:45:37;;;;;;;11.50;8.30;;;15.60;40.70;;;;;;5079573;28;20450;-82
2023/06/06 05:48:05;;;;;;;10.80;7.63;;;15.60;85.50;;;;;;5079300;28;20455;-84
2023/06/06 05:50:32;;;;;;;13.90;7.10;;;15.70;99.90;;;;;;5079095;28;20439;-82
2023/06/06 05:53:02;;;;;;;14.63;8.10;;;15.70;99.90;;;;;;5078964;28;20494;-82
2023/06/06 05:55:30;;;;;;;13.50;8.23;;;15.70;99.90;;;;;;5083963;28;20451;-83
2023/06/06 05:57:59;;;;;;;11.90;7.07;;;15.80;1.00;;;;;;5090489;28;20490;-81
2023/06/06 06:00:27;;;;;;;13.10;7.80;;;15.80;99.90;;;;;;5093734;28;20518;-81
2023/06/06 06:02:56;;;;;;;8.43;7.57;;;15.90;99.90;;;;;;5081584;28;20467;-82
2023/06/06 06:05:22;;;;;;;9.60;7.20;;;16.00;1.00;;;;;;5082499;28;20512;-82
2023/06/06 06:07:52;;;;;;;9.47;7.70;;;16.10;99.90;;;;;;5082496;28;20470;-81
2023/06/06 06:10:19;;;;;;;14.00;7.47;;;16.20;1.00;;;;;;5082261;28;20543;-82
2023/06/06 06:12:46;;;;;;;10.00;6.60;;;16.20;99.90;;;;;;5081753;28;20537;-82
2023/06/06 06:15:14;;;;;;;20.73;8.67;;;16.20;99.90;;;;;;5082429;28;20451;-82
2023/06/06 06:17:41;;;;;;;10.77;7.93;;;16.30;99.90;;;;;;5082287;28;20772;-82
2023/06/06 06:20:11;;;;;;;11.37;8.70;;;16.30;99.90;;;;;;5082017;28;20484;-82
2023/06/06 06:22:38;;;;;;;10.40;8.33;;;16.40;1.00;;;;;;5081688;28;20532;-81
2023/06/06 06:25:08;;;;;;;10.47;7.60;;;16.30;1.00;;;;;;5082330;28;20447;-82
2023/06/06 06:27:35;;;;;;;11.83;8.57;;;16.40;99.90;;;;;;5082922;28;20479;-81
2023/06/06 06:30:03;;;;;;;10.80;7.40;;;16.50;30.70;;;;;;5083021;28;20496;-81
2023/06/06 06:32:33;;;;;;;12.17;7.70;;;16.50;1.00;;;;;;5097381;28;20487;-81
2023/06/06 06:35:00;;;;;;;12.43;7.30;;;16.60;99.90;;;;;;5098126;28;20514;-81
2023/06/06 06:37:29;;;;;;;11.63;8.20;;;16.60;1.00;;;;;;5088327;28;20451;-82
2023/06/06 06:39:56;;;;;;;13.30;8.00;;;16.70;1.00;;;;;;5081919;28;20466;-84
2023/06/06 06:42:23;;;;;;;11.73;8.00;;;16.70;99.90;;;;;;5081984;28;21062;-82
2023/06/06 06:44:50;;;;;;;11.00;7.57;;;16.70;1.00;;;;;;5079806;28;20449;-82
2023/06/06 06:47:17;;;;;;;10.10;7.13;;;16.80;1.00;;;;;;5081486;28;20451;-81
2023/06/06 06:49:46;;;;;;;10.20;7.50;;;16.90;50.00;;;;;;5081748;28;20460;-82
2023/06/06 06:52:15;;;;;;;13.53;8.80;;;17.00;99.90;;;;;;5081050;28;20495;-83
2023/06/06 06:54:53;;;;;;;10.63;7.97;;;17.00;1.00;;;;;;5080659;28;20516;-83
2023/06/06 06:57:20;;;;;;;15.50;8.23;;;17.10;99.90;;;;;;5081158;28;20464;-82
2023/06/06 06:59:48;;;;;;;11.57;7.60;;;17.00;99.90;;;;;;5081170;28;20454;-82
2023/06/06 07:02:15;;;;;;;12.70;8.10;;;17.10;99.90;;;;;;5081531;28;20468;-81
2023/06/06 07:04:45;;;;;;;10.40;8.20;;;17.20;1.00;;;;;;5080139;28;20477;-82
2023/06/06 07:07:15;;;;;;;9.97;8.70;;;17.30;99.90;;;;;;5081713;28;20534;-82
2023/06/06 07:09:43;;;;;;;9.20;7.23;;;17.40;99.90;;;;;;5081213;28;20777;-82
2023/06/06 07:12:11;;;;;;;13.90;8.10;;;17.50;99.90;;;;;;5082279;28;20484;-82
2023/06/06 07:14:38;;;;;;;10.23;7.90;;;17.60;99.90;;;;;;5081026;28;20968;-82
2023/06/06 07:17:05;;;;;;;9.17;8.13;;;17.60;99.90;;;;;;5081331;28;20510;-82
2023/06/06 07:19:32;;;;;;;10.53;8.20;;;17.70;24.20;;;;;;5080898;28;20516;-83
2023/06/06 07:21:59;;;;;;;10.27;8.20;;;17.80;1.00;;;;;;5081690;28;20528;-82
2023/06/06 07:24:27;;;;;;;10.77;8.07;;;17.90;1.00;;;;;;5080827;28;20906;-82
2023/06/06 07:26:54;;;;;;;10.27;8.00;;;18.00;1.00;;;;;;5081004;28;20514;-83
2023/06/06 07:29:21;;;;;;;12.70;8.77;;;18.10;1.00;;;;;;5081241;28;20892;-82
2023/06/06 07:31:48;;;;;;;9.10;6.73;;;18.10;99.90;;;;;;5080737;28;20545;-82
2023/06/06 07:34:15;;;;;;;9.57;7.07;;;18.20;99.90;;;;;;5079839;28;20455;-81
2023/06/06 07:36:42;;;;;;;10.60;8.50;;;18.40;1.00;;;;;;5081419;28;20464;-82
2023/06/06 07:39:09;;;;;;;10.10;7.50;;;18.50;99.90;;;;;;5081076;28;20458;-82
2023/06/06 07:41:40;;;;;;;10.83;7.80;;;18.50;99.90;;;;;;5080665;28;20482;-82
2023/06/06 07:44:07;;;;;;;11.50;7.90;;;18.60;6.80;;;;;;5079846;28;20520;-83
2023/06/06 07:46:33;;;;;;;10.30;8.40;;;18.70;1.00;;;;;;5081710;28;20449;-82
2023/06/06 07:49:00;;;;;;;9.23;7.13;;;18.80;1.00;;;;;;5080912;28;20478;-83
2023/06/06 07:51:27;;;;;;;12.20;8.70;;;18.90;1.00;;;;;;5081137;28;20482;-82
2023/06/06 07:53:54;;;;;;;10.77;7.63;;;19.00;1.00;;;;;;5079821;28;20486;-83
2023/06/06 07:56:21;;;;;;;10.60;7.50;;;19.10;1.00;;;;;;5080540;28;20548;-84
2023/06/06 07:58:52;;;;;;;9.50;8.17;;;19.20;1.00;;;;;;5080365;28;20452;-84
2023/06/06 08:01:20;;;;;;;10.97;7.80;;;19.20;1.00;;;;;;5080000;28;20574;-83
2023/06/06 08:03:49;;;;;;;9.87;7.90;;;19.30;99.90;;;;;;5080495;28;20443;-84
2023/06/06 08:06:16;;;;;;;13.10;9.13;;;19.40;99.90;;;;;;5081320;28;20962;-84
2023/06/06 08:08:43;;;;;;;9.47;7.83;;;19.40;99.90;;;;;;5093638;28;20441;-82
2023/06/06 08:11:10;;;;;;;9.83;8.00;;;19.50;99.90;;;;;;5087417;28;20534;-84
2023/06/06 08:13:37;;;;;;;12.57;8.30;;;19.60;99.90;;;;;;5079502;28;20482;-83
2023/06/06 08:16:06;;;;;;;14.27;7.50;;;19.70;99.90;;;;;;5080912;28;20566;-83
2023/06/06 08:18:32;;;;;;;15.50;8.20;;;19.70;99.90;;;;;;5079869;28;21009;-84
2023/06/06 08:20:59;;;;;;;10.17;8.67;;;19.80;99.90;;;;;;5079181;28;20474;-84
2023/06/06 08:23:26;;;;;;;9.00;7.17;;;19.90;99.90;;;;;;5079091;28;20450;-84
2023/06/06 08:25:55;;;;;;;14.90;8.73;;;20.00;99.90;;;;;;5080275;28;20522;-84
2023/06/06 08:28:23;;;;;;;11.93;8.57;;;20.10;99.90;;;;;;5080223;28;20570;-83
2023/06/06 08:30:51;;;;;;;11.13;9.17;;;20.30;99.90;;;;;;5080031;28;20942;-83
2023/06/06 08:33:19;;;;;;;8.53;7.40;;;20.50;99.90;;;;;;5078424;28;20502;-83
2023/06/06 08:35:46;;;;;;;13.00;7.73;;;20.60;99.90;;;;;;5079157;28;20439;-83
2023/06/06 08:38:13;;;;;;;9.40;7.47;;;20.80;99.90;;;;;;5079478;28;20450;-83
2023/06/06 08:40:40;;;;;;;7.73;6.20;;;20.80;98.00;;;;;;5078542;28;20442;-83
2023/06/06 08:43:09;;;;;;;9.83;6.17;;;21.00;99.90;;;;;;5079286;28;20477;-83
2023/06/06 08:45:37;;;;;;;10.90;7.77;;;21.30;70.60;;;;;;5079747;28;20470;-83
2023/06/06 08:48:06;;;;;;;9.17;7.80;;;21.50;59.70;;;;;;5079558;28;20478;-82
2023/06/06 08:50:35;;;;;;;11.90;7.00;;;21.70;1.00;;;;;;5079089;28;20886;-82
2023/06/06 08:53:04;;;;;;;12.50;7.83;;;21.90;30.10;;;;;;5078211;28;20544;-82
2023/06/06 08:55:34;;;;;;;9.53;7.20;;;22.10;1.00;;;;;;5078984;28;20465;-83
2023/06/06 08:58:03;;;;;;;8.17;5.60;;;22.30;1.00;;;;;;5079297;28;20470;-84
2023/06/06 09:00:30;;;;;;;12.03;8.13;;;22.50;1.00;;;;;;5078903;28;20451;-83
2023/06/06 09:02:59;;;;;;;9.10;6.70;;;22.70;1.00;;;;;;5079036;28;20477;-82
2023/06/06 09:05:26;;;;;;;10.57;7.20;;;22.80;1.00;;;;;;5079295;28;20451;-83
2023/06/06 09:07:54;;;;;;;9.77;7.07;;;23.00;1.00;;;;;;5079213;28;20450;-84
2023/06/06 09:10:21;;;;;;;10.80;7.37;;;23.10;1.00;;;;;;5078616;28;20518;-83
2023/06/06 09:12:49;;;;;;;8.10;7.10;;;23.20;1.00;;;;;;5077973;28;20486;-83
2023/06/06 09:15:16;;;;;;;12.80;7.40;;;23.40;1.00;;;;;;5078735;28;20451;-84
2023/06/06 09:17:45;;;;;;;13.20;8.03;;;23.60;1.00;;;;;;5078450;28;20985;-82
2023/06/06 09:20:14;;;;;;;9.00;7.43;;;23.70;1.00;;;;;;5078229;28;20455;-82
2023/06/06 09:22:42;;;;;;;11.57;7.03;;;23.80;1.00;;;;;;5077982;28;20501;-84
2023/06/06 09:25:19;;;;;;;10.60;7.50;;;23.90;1.00;;;;;;5078095;28;20450;-83
2023/06/06 09:27:46;;;;;;;10.40;7.30;;;24.10;1.00;;;;;;5078319;28;20439;-83
2023/06/06 09:30:31;;;;;;;8.57;6.37;;;24.20;1.00;;;;;;5082839;28;20447;-83
2023/06/06 09:33:00;;;;;;;9.17;7.37;;;24.30;1.00;;;;;;5082582;28;20504;-84
2023/06/06 09:35:31;;;;;;;10.20;6.43;;;24.40;1.00;;;;;;5082443;28;20455;-83
2023/06/06 09:37:58;;;;;;;7.97;6.27;;;24.60;1.00;;;;;;5082924;28;20415;-84
2023/06/06 09:40:28;;;;;;;12.10;6.70;;;24.70;1.00;;;;;;5082207;28;20832;-83
2023/06/06 09:42:58;;;;;;;8.40;6.63;;;24.90;1.00;;;;;;5082638;28;20834;-84
2023/06/06 09:45:25;;;;;;;9.90;6.77;;;25.00;1.00;;;;;;5082266;28;20446;-83
2023/06/06 09:47:52;;;;;;;7.13;5.90;;;25.20;1.00;;;;;;5083022;28;20535;-85
2023/06/06 09:50:20;;;;;;;8.63;6.80;;;25.30;1.00;;;;;;5082856;28;20545;-85
2023/06/06 09:52:51;;;;;;;8.30;6.30;;;25.60;1.00;;;;;;5086207;28;20556;-83
2023/06/06 09:55:19;;;;;;;9.07;6.90;;;25.80;1.00;;;;;;5098922;28;20454;-84
2023/06/06 09:57:49;;;;;;;13.93;7.60;;;25.80;1.00;;;;;;5096530;28;20501;-83
2023/06/06 10:00:16;;;;;;;10.77;7.70;;;25.90;1.00;;;;;;5084193;28;20450;-84
2023/06/06 10:02:47;;;;;;;12.33;7.73;;;26.00;1.00;;;;;;5081095;28;20466;-82
2023/06/06 10:05:16;;;;;;;9.03;7.40;;;25.90;1.00;;;;;;5082158;28;20451;-83
2023/06/06 10:07:45;;;;;;;8.80;7.90;;;26.20;1.00;;;;;;5081289;28;20496;-83
2023/06/06 10:10:13;;;;;;;9.20;6.50;;;26.30;1.00;;;;;;5081597;28;20446;-84
2023/06/06 10:12:40;;;;;;;8.67;6.60;;;26.30;1.00;;;;;;5081231;28;20486;-85
2023/06/06 10:15:11;;;;;;;7.63;5.97;;;26.60;1.00;;;;;;5082527;28;20455;-84
2023/06/06 10:17:40;;;;;;;9.60;7.10;;;26.90;1.00;;;;;;5090198;28;20431;-83
2023/06/06 10:20:09;;;;;;;7.10;5.97;;;27.00;1.00;;;;;;5095274;28;20450;-83
2023/06/06 10:22:37;;;;;;;9.10;6.30;;;27.20;99.90;;;;;;5080916;28;20562;-84
2023/06/06 10:25:05;;;;;;;10.80;5.40;;;27.40;99.90;;;;;;5082050;28;20455;-82
2023/06/06 10:27:44;;;;;;;8.20;6.30;;;27.70;99.90;;;;;;5081347;28;20451;-84
2023/06/06 10:30:23;;;;;;;6.87;6.13;;;27.90;99.90;;;;;;5080845;28;20447;-85
2023/06/06 10:33:01;;;;;;;8.93;6.47;;;28.00;99.90;;;;;;5080006;28;20486;-84
2023/06/06 10:35:29;;;;;;;8.73;5.17;;;28.20;99.90;;;;;;5080283;28;20448;-83
2023/06/06 10:38:03;;;;;;;7.80;5.27;;;28.40;99.90;;;;;;5081198;28;20453;-83
2023/06/06 10:40:48;;;;;;;10.87;6.87;;;28.20;99.90;;;;;;5081222;28;20450;-83
2023/06/06 10:43:17;;;;;;;12.27;5.87;;;27.70;99.90;;;;;;5079776;28;20447;-83
2023/06/06 10:45:47;;;;;;;7.17;5.43;;;27.30;99.90;;;;;;5079796;28;20455;-83
2023/06/06 10:48:14;;;;;;;6.27;4.87;;;27.30;99.90;;;;;;5081236;28;20451;-83
2023/06/06 10:50:55;;;;;;;11.40;7.23;;;27.30;99.90;;;;;;5080132;28;20439;-83
2023/06/06 10:53:23;;;;;;;9.10;5.20;;;27.70;99.90;;;;;;5099105;22;20501;-81
2023/06/06 10:55:50;;;;;;;6.20;4.93;;;28.10;99.90;;;;;;5079077;28;20447;-81
2023/06/06 10:58:24;;;;;;;7.23;5.27;;;28.50;99.90;;;;;;5079622;28;20816;-81
2023/06/06 11:00:59;;;;;;;5.93;5.20;;;29.00;99.90;;;;;;5080754;28;20548;-81
2023/06/06 11:03:34;;;;;;;7.67;5.43;;;29.30;99.90;;;;;;5077568;28;20458;-82
2023/06/06 11:06:20;;;;;;;8.23;5.40;;;29.50;99.90;;;;;;5079981;28;20451;-83
2023/06/06 11:08:53;;;;;;;4.60;4.20;;;29.80;99.90;;;;;;5081757;28;20843;-82
2023/06/06 11:11:23;;;;;;;6.43;5.03;;;29.80;99.90;;;;;;5080396;28;20458;-82
2023/06/06 11:13:56;;;;;;;6.60;4.73;;;30.10;99.90;;;;;;5085645;28;20497;-82
2023/06/06 11:17:01;;;;;;;8.40;4.50;;;30.20;99.90;;;;;;5084592;28;20500;-82
2023/06/06 11:19:37;;;;;;;5.20;4.70;;;30.50;99.90;;;;;;5083392;28;20538;-82
2023/06/06 11:22:04;;;;;;;4.27;3.63;;;30.80;99.90;;;;;;5082004;28;20481;-82
2023/06/06 11:24:36;;;;;;;7.80;4.50;;;31.00;99.90;;;;;;5080864;28;20447;-82
2023/06/06 11:27:03;;;;;;;5.40;4.47;;;31.20;99.90;;;;;;5081559;28;20479;-82
2023/06/06 11:29:32;;;;;;;5.37;4.07;;;31.40;99.90;;;;;;5080320;28;20451;-82
2023/06/06 11:31:59;;;;;;;5.63;4.37;;;31.50;99.90;;;;;;5080847;28;20466;-83
2023/06/06 11:34:27;;;;;;;5.20;4.00;;;31.70;99.90;;;;;;5079930;28;20887;-82
2023/06/06 11:36:54;;;;;;;5.47;4.70;;;31.90;99.90;;;;;;5080170;28;20542;-82
2023/06/06 11:39:22;;;;;;;8.33;4.60;;;32.00;99.90;;;;;;5079077;28;20451;-82
2023/06/06 11:41:50;;;;;;;7.43;3.97;;;32.20;99.90;;;;;;5078651;28;20451;-82
2023/06/06 11:44:18;;;;;;;5.50;3.97;;;32.20;99.90;;;;;;5077315;28;20455;-81
2023/06/06 11:46:49;;;;;;;5.77;4.07;;;32.40;99.90;;;;;;5079083;28;20952;-82
2023/06/06 11:49:17;;;;;;;7.80;4.03;;;32.50;99.90;;;;;;5079637;28;20435;-81
2023/06/06 11:51:54;;;;;;;6.60;3.90;;;32.50;99.90;;;;;;5076842;28;20447;-81
2023/06/06 11:54:21;;;;;;;4.70;3.47;;;32.70;99.90;;;;;;5078078;28;20514;-81
2023/06/06 11:56:52;;;;;;;5.07;3.80;;;32.90;99.90;;;;;;5079122;28;20482;-81
2023/06/06 11:59:20;;;;;;;7.33;3.40;;;33.00;99.90;;;;;;5078738;28;20427;-81
2023/06/06 12:01:49;;;;;;;5.87;4.10;;;33.20;99.90;;;;;;5078471;28;20947;-82
2023/06/06 12:04:17;;;;;;;5.60;3.50;;;33.30;99.90;;;;;;5077131;28;20454;-81
2023/06/06 12:06:47;;;;;;;5.50;3.93;;;33.60;99.90;;;;;;5082301;28;20446;-81
2023/06/06 12:09:16;;;;;;;4.87;3.47;;;33.60;99.90;;;;;;5079080;28;20431;-81
2023/06/06 12:11:54;;;;;;;3.37;2.87;;;33.30;99.90;;;;;;5079033;28;20459;-81
2023/06/06 12:14:22;;;;;;;4.93;3.73;;;33.00;99.90;;;;;;5077522;28;20470;-82
2023/06/06 12:16:49;;;;;;;7.03;3.80;;;32.60;99.90;;;;;;5078543;28;20454;-81
2023/06/06 12:19:17;;;;;;;4.47;3.67;;;32.20;99.90;;;;;;5077089;28;20959;-80
2023/06/06 12:21:47;;;;;;;3.80;3.40;;;32.10;99.90;;;;;;5078058;28;20455;-81
2023/06/06 12:24:18;;;;;;;5.70;3.80;;;32.20;99.90;;;;;;5076609;28;20529;-81
2023/06/06 12:26:53;;;;;;;6.63;3.77;;;32.50;99.90;;;;;;5077332;28;20474;-80
2023/06/06 12:29:21;;;;;;;8.80;3.60;;;32.80;99.90;;;;;;5077226;28;20443;-80
2023/06/06 12:31:50;;;;;;;6.20;3.87;;;32.90;99.90;;;;;;5076617;28;20455;-81
2023/06/06 12:34:18;;;;;;;10.93;4.23;;;33.00;99.90;;;;;;5076505;28;20483;-80
2023/06/06 12:36:45;;;;;;;6.67;4.00;;;33.20;99.90;;;;;;5077239;28;20461;-82
2023/06/06 12:39:14;;;;;;;5.40;3.57;;;33.10;99.90;;;;;;5077080;28;20455;-81
2023/06/06 12:41:42;;;;;;;4.20;3.53;;;33.20;99.90;;;;;;5076036;28;20968;-81
2023/06/06 12:44:11;;;;;;;7.63;4.17;;;33.20;99.90;;;;;;5074923;28;20458;-81
2023/06/06 12:46:39;;;;;;;7.60;3.37;;;33.20;99.90;;;;;;5076921;28;20458;-81
2023/06/06 12:49:06;;;;;;;12.60;4.67;;;33.20;99.90;;;;;;5076528;28;20526;-81
2023/06/06 12:51:34;;;;;;;3.97;3.00;;;32.90;99.90;;;;;;5077144;28;20454;-81
2023/06/06 12:54:01;;;;;;;4.40;3.43;;;32.50;99.90;;;;;;5076178;28;20486;-81
2023/06/06 12:56:30;;;;;;;4.07;3.03;;;32.20;99.90;;;;;;5076713;28;20459;-80